Time;durP1;ratioP1;P1;durP2;ratioP2;P2;SDS_P1;SDS_P2;PMS_P1;PMS_P2;Temp;Humidity;BMP_temperature;BMP_pressure;BME280_temperature;BME280_humidity;BME280_pressure;Samples;Min_cycle;Max_cycle;Signal;HPM_P1;HPM_P2
2022/02/16 00:00:47;;;;;;;2.50;1.53;;;5.80;99.90;;;;;;5060373;28;20176;-94
2022/02/16 00:03:12;;;;;;;4.03;1.33;;;5.80;99.90;;;;;;5060073;28;20518;-93
2022/02/16 00:05:38;;;;;;;2.97;1.50;;;5.70;99.90;;;;;;5060319;28;20173;-94
2022/02/16 00:08:04;;;;;;;4.10;1.67;;;5.80;99.90;;;;;;5060497;28;20181;-93
2022/02/16 00:10:30;;;;;;;4.57;1.40;;;5.80;99.90;;;;;;5060158;28;20197;-94
2022/02/16 00:12:56;;;;;;;5.67;1.60;;;5.80;99.90;;;;;;5060038;28;20231;-93
2022/02/16 00:15:23;;;;;;;4.03;1.70;;;5.80;99.90;;;;;;5456826;22;20235;-96
2022/02/16 00:17:51;;;;;;;2.87;1.50;;;5.70;99.90;;;;;;5028813;28;20206;-92
2022/02/16 00:20:21;;;;;;;4.40;1.60;;;5.70;99.90;;;;;;5013258;28;20194;-96
2022/02/16 00:22:49;;;;;;;3.57;1.40;;;5.70;99.90;;;;;;5012457;28;20179;-96
2022/02/16 00:25:15;;;;;;;3.70;1.37;;;5.80;99.90;;;;;;5011095;28;20191;-96
2022/02/16 00:27:43;;;;;;;2.60;1.40;;;5.80;99.90;;;;;;4996120;28;20255;-96
2022/02/16 00:30:09;;;;;;;3.73;1.30;;;5.80;99.90;;;;;;5012123;28;20183;-95
2022/02/16 00:32:35;;;;;;;5.10;1.50;;;5.70;99.90;;;;;;5014189;28;20195;-96
2022/02/16 00:35:03;;;;;;;4.63;1.93;;;5.80;99.90;;;;;;5013624;28;20218;-96
2022/02/16 00:37:45;;;;;;;3.87;1.40;;;5.80;99.90;;;;;;5000127;28;20195;-96
2022/02/16 00:40:14;;;;;;;3.40;1.33;;;5.80;99.90;;;;;;5014823;28;20175;-95
2022/02/16 00:42:42;;;;;;;4.33;1.50;;;5.80;99.90;;;;;;5009759;28;20171;-96
2022/02/16 00:45:11;;;;;;;4.83;1.70;;;5.80;99.90;;;;;;5004285;28;20187;-94
2022/02/16 00:47:39;;;;;;;5.23;1.43;;;5.80;99.90;;;;;;5037435;28;20677;-94
2022/02/16 00:50:05;;;;;;;4.97;1.40;;;5.80;99.90;;;;;;4989258;28;20192;-95
2022/02/16 00:52:31;;;;;;;3.27;1.40;;;5.80;99.90;;;;;;5002942;28;20203;-93
2022/02/16 00:54:57;;;;;;;5.47;1.20;;;5.80;99.90;;;;;;5004433;28;20222;-92
2022/02/16 00:57:36;;;;;;;4.27;1.40;;;5.90;99.90;;;;;;5021820;28;20187;-93
2022/02/16 01:00:04;;;;;;;4.30;1.57;;;5.90;99.90;;;;;;5000771;22;20171;-95
2022/02/16 01:02:34;;;;;;;4.37;1.60;;;5.90;99.90;;;;;;5028810;28;20615;-93
2022/02/16 01:05:00;;;;;;;2.53;1.50;;;5.90;99.90;;;;;;5025157;28;20206;-94
2022/02/16 01:07:33;;;;;;;4.63;1.60;;;5.90;99.90;;;;;;5024231;28;20202;-93
2022/02/16 01:10:00;;;;;;;5.53;1.80;;;5.90;99.90;;;;;;5027972;28;20691;-95
2022/02/16 01:12:31;;;;;;;4.30;1.70;;;5.90;99.90;;;;;;5023415;28;20217;-95
2022/02/16 01:14:59;;;;;;;3.60;1.73;;;5.80;99.90;;;;;;5045236;28;20695;-94
2022/02/16 01:17:30;;;;;;;4.87;1.57;;;5.80;99.90;;;;;;5028746;28;20178;-96
2022/02/16 01:19:56;;;;;;;6.97;1.80;;;5.80;99.90;;;;;;5011520;28;20206;-95
2022/02/16 01:22:25;;;;;;;2.53;1.37;;;5.80;99.90;;;;;;5026054;28;20213;-96
2022/02/16 01:24:51;;;;;;;2.97;1.40;;;5.80;99.90;;;;;;5023699;28;20183;-93
2022/02/16 01:27:29;;;;;;;7.07;2.00;;;5.80;99.90;;;;;;5023976;28;20183;-95
2022/02/16 01:29:58;;;;;;;5.27;1.43;;;5.80;99.90;;;;;;5026285;28;20197;-94
2022/02/16 01:32:25;;;;;;;5.27;1.57;;;5.80;99.90;;;;;;5041145;28;20197;-95
2022/02/16 01:34:55;;;;;;;3.47;1.60;;;5.80;99.90;;;;;;5026724;28;20206;-93
2022/02/16 01:37:23;;;;;;;8.30;1.87;;;5.80;99.90;;;;;;5025570;28;20193;-95
2022/02/16 01:39:53;;;;;;;3.50;1.53;;;5.80;99.90;;;;;;5043225;28;20178;-95
2022/02/16 01:42:22;;;;;;;4.47;1.67;;;5.80;99.90;;;;;;5042499;28;20268;-95
2022/02/16 01:44:48;;;;;;;7.17;1.87;;;5.80;99.90;;;;;;5023907;28;20218;-93
2022/02/16 01:47:17;;;;;;;5.77;1.80;;;5.80;99.90;;;;;;5022651;28;20186;-93
2022/02/16 01:49:44;;;;;;;3.87;1.67;;;5.80;99.90;;;;;;5023122;28;20273;-93
2022/02/16 01:52:11;;;;;;;5.90;1.80;;;5.90;99.90;;;;;;5025608;28;20184;-93
2022/02/16 01:54:37;;;;;;;2.90;1.90;;;5.80;99.90;;;;;;5022600;28;20248;-95
2022/02/16 01:57:05;;;;;;;3.03;2.00;;;5.90;99.90;;;;;;5024472;28;20187;-92
2022/02/16 01:59:34;;;;;;;4.97;1.90;;;5.90;99.90;;;;;;5024337;28;20193;-91
2022/02/16 02:02:00;;;;;;;3.63;1.90;;;5.90;99.90;;;;;;5022987;28;20234;-94
2022/02/16 02:04:26;;;;;;;5.70;2.27;;;5.90;99.90;;;;;;5024135;28;20262;-94
2022/02/16 02:07:14;;;;;;;3.97;1.93;;;5.90;99.90;;;;;;5023985;28;20186;-93
2022/02/16 02:09:44;;;;;;;3.83;1.93;;;5.90;99.90;;;;;;5025202;28;20198;-96
2022/02/16 02:12:11;;;;;;;5.17;2.20;;;5.90;99.90;;;;;;5025840;28;20178;-95
2022/02/16 02:14:42;;;;;;;3.77;1.80;;;5.90;99.90;;;;;;5025208;28;20225;-96
2022/02/16 02:17:17;;;;;;;5.53;2.13;;;6.00;99.90;;;;;;5022950;28;20627;-93
2022/02/16 02:19:46;;;;;;;2.13;1.60;;;6.00;99.90;;;;;;5023447;28;20197;-91
2022/02/16 02:22:12;;;;;;;3.10;1.80;;;6.00;99.90;;;;;;5007100;28;20210;-94
2022/02/16 02:24:38;;;;;;;4.20;2.10;;;6.00;99.90;;;;;;5025265;28;20181;-93
2022/02/16 02:27:09;;;;;;;4.20;2.10;;;6.00;99.90;;;;;;5022700;28;20179;-95
2022/02/16 02:29:39;;;;;;;4.43;2.17;;;6.00;99.90;;;;;;5023799;28;20170;-95
2022/02/16 02:32:07;;;;;;;3.53;1.90;;;6.00;99.90;;;;;;5040871;28;20178;-95
2022/02/16 02:34:32;;;;;;;4.37;2.00;;;6.00;99.90;;;;;;5024091;28;20233;-94
2022/02/16 02:36:58;;;;;;;3.37;1.83;;;6.00;99.90;;;;;;5024875;28;20182;-96
2022/02/16 02:39:26;;;;;;;5.77;2.20;;;6.00;99.90;;;;;;5008610;28;20172;-93
2022/02/16 02:41:52;;;;;;;4.37;1.70;;;6.00;99.90;;;;;;5005003;28;20187;-92
2022/02/16 02:44:18;;;;;;;4.83;2.23;;;6.00;99.90;;;;;;5005918;28;20267;-94
2022/02/16 02:46:44;;;;;;;4.63;2.23;;;6.00;99.90;;;;;;5038692;28;20260;-93
2022/02/16 02:49:10;;;;;;;3.17;1.80;;;6.00;99.90;;;;;;5023876;28;20550;-94
2022/02/16 02:51:36;;;;;;;3.67;2.10;;;6.00;99.90;;;;;;5025347;28;20186;-92
2022/02/16 02:54:02;;;;;;;5.10;2.07;;;6.00;99.90;;;;;;5024971;28;20296;-92
2022/02/16 02:56:30;;;;;;;6.73;2.10;;;6.00;99.90;;;;;;5023945;28;20233;-93
2022/02/16 02:59:02;;;;;;;2.93;1.90;;;6.00;99.90;;;;;;5009663;28;20178;-92
2022/02/16 03:01:31;;;;;;;3.33;1.80;;;6.10;99.90;;;;;;5008415;28;20226;-92
2022/02/16 03:03:56;;;;;;;3.97;1.73;;;6.10;99.90;;;;;;5024527;28;20179;-93
2022/02/16 03:06:25;;;;;;;3.60;2.17;;;6.00;99.90;;;;;;5025935;28;20283;-94
2022/02/16 03:08:51;;;;;;;2.47;1.90;;;6.10;99.90;;;;;;5026754;28;20186;-93
2022/02/16 03:11:19;;;;;;;2.80;1.90;;;6.10;99.90;;;;;;5014184;28;20180;-92
2022/02/16 03:13:50;;;;;;;2.77;1.80;;;6.10;99.90;;;;;;5006372;28;20247;-93
2022/02/16 03:16:16;;;;;;;3.83;2.20;;;6.10;99.90;;;;;;5031507;28;20245;-95
2022/02/16 03:18:44;;;;;;;1.93;1.53;;;6.20;99.90;;;;;;5028249;28;20179;-94
2022/02/16 03:21:12;;;;;;;3.13;1.80;;;6.10;99.90;;;;;;4996650;28;20219;-96
2022/02/16 03:23:43;;;;;;;3.80;2.00;;;6.10;99.90;;;;;;4997747;28;20629;-96
2022/02/16 03:26:29;;;;;;;3.53;2.30;;;6.10;99.90;;;;;;5036395;28;20215;-96
2022/02/16 03:29:00;;;;;;;3.53;1.80;;;6.10;99.90;;;;;;5019703;28;20210;-96
2022/02/16 07:58:24;;;;;;;3.20;1.60;;;7.10;99.90;;;;;;5056607;28;20220;-96
2022/02/16 08:00:58;;;;;;;4.07;1.90;;;7.20;99.90;;;;;;5040512;28;20198;-94
2022/02/16 08:03:24;;;;;;;2.40;1.60;;;7.20;99.90;;;;;;5040738;28;20170;-96
2022/02/16 08:05:50;;;;;;;3.43;1.70;;;7.20;99.90;;;;;;5032438;28;20241;-94
2022/02/16 08:08:17;;;;;;;3.47;1.47;;;7.30;99.90;;;;;;5035436;28;20186;-95
2022/02/16 08:10:48;;;;;;;2.77;1.80;;;7.40;99.90;;;;;;5033804;28;20194;-96
2022/02/16 08:13:16;;;;;;;1.60;1.20;;;7.40;99.90;;;;;;5018879;28;20220;-96
2022/02/16 08:15:42;;;;;;;4.70;1.67;;;7.30;99.90;;;;;;5009039;28;20206;-95
2022/02/16 08:18:13;;;;;;;2.47;1.50;;;7.40;99.90;;;;;;5020003;28;20513;-93
2022/02/16 08:20:46;;;;;;;2.00;1.10;;;7.40;99.90;;;;;;5020383;28;20500;-94
2022/02/16 08:23:12;;;;;;;2.70;1.40;;;7.50;99.90;;;;;;5022812;28;20181;-93
2022/02/16 08:25:39;;;;;;;2.10;1.30;;;7.40;99.90;;;;;;5020810;28;20186;-96
2022/02/16 08:28:07;;;;;;;2.83;1.20;;;7.40;99.90;;;;;;5020865;28;20206;-96
2022/02/16 08:33:15;;;;;;;5.27;1.70;;;7.40;99.90;;;;;;5723794;23;20264;-94
2022/02/16 08:35:40;;;;;;;4.67;1.60;;;7.30;99.90;;;;;;5447209;23;20238;-92
2022/02/16 08:38:07;;;;;;;2.70;1.50;;;7.30;99.90;;;;;;5016202;28;20229;-96
2022/02/16 08:40:32;;;;;;;3.23;1.97;;;7.30;99.90;;;;;;5019029;28;20197;-94
2022/02/16 08:42:58;;;;;;;4.10;1.60;;;7.30;99.90;;;;;;5018029;28;20175;-94
2022/02/16 08:45:25;;;;;;;4.03;1.63;;;7.30;99.90;;;;;;5016343;28;20179;-96
2022/02/16 08:47:54;;;;;;;2.43;1.40;;;7.20;99.90;;;;;;5022948;28;20182;-94
2022/02/16 08:50:22;;;;;;;2.50;1.50;;;7.30;99.90;;;;;;5027346;28;20167;-94
2022/02/16 08:52:48;;;;;;;2.40;1.50;;;7.30;99.90;;;;;;5025808;28;20246;-96
2022/02/16 08:55:19;;;;;;;3.53;1.90;;;7.30;99.90;;;;;;5025391;28;20203;-94
2022/02/16 08:57:57;;;;;;;5.43;1.70;;;7.30;99.90;;;;;;5025269;28;20221;-93
2022/02/16 09:00:24;;;;;;;2.73;1.70;;;7.40;99.90;;;;;;5022394;28;20186;-93
2022/02/16 09:02:51;;;;;;;4.17;1.70;;;7.40;99.90;;;;;;5023372;28;20175;-95
2022/02/16 09:05:22;;;;;;;3.60;1.50;;;7.40;99.90;;;;;;5024383;28;20183;-96
2022/02/16 09:08:01;;;;;;;1.90;1.63;;;7.50;99.90;;;;;;5005723;28;20191;-96
2022/02/16 09:10:35;;;;;;;2.97;1.80;;;7.60;99.90;;;;;;5029593;28;20171;-96
2022/02/16 09:13:02;;;;;;;3.10;1.70;;;7.70;99.90;;;;;;5025073;28;20197;-96
2022/02/16 09:15:31;;;;;;;2.87;1.70;;;7.70;99.90;;;;;;5023184;28;20215;-95
2022/02/16 09:18:05;;;;;;;2.73;1.67;;;7.70;99.90;;;;;;5022824;28;20528;-95
2022/02/16 09:20:32;;;;;;;3.27;1.90;;;7.80;99.90;;;;;;5020102;28;20175;-93
2022/02/16 09:22:58;;;;;;;2.07;1.50;;;7.80;99.90;;;;;;5012805;28;20191;-96
2022/02/16 09:30:35;;;;;;;3.33;1.57;;;8.00;99.90;;;;;;5094237;23;20270;-87
2022/02/16 09:33:01;;;;;;;2.70;1.50;;;8.00;99.90;;;;;;5038156;28;20178;-87
2022/02/16 09:35:27;;;;;;;2.30;1.33;;;8.00;99.90;;;;;;5038339;28;20210;-87
2022/02/16 09:37:53;;;;;;;1.33;1.00;;;8.00;99.90;;;;;;5042946;28;20230;-86
2022/02/16 09:40:25;;;;;;;2.47;1.50;;;8.10;99.90;;;;;;5037722;28;20217;-89
2022/02/16 09:42:50;;;;;;;1.67;1.10;;;8.10;99.90;;;;;;5055479;28;20185;-89
2022/02/16 09:45:16;;;;;;;1.77;1.07;;;8.30;99.90;;;;;;5037342;28;20189;-88
2022/02/16 09:55:22;;;;;;;3.33;1.23;;;8.40;99.90;;;;;;5249757;23;20244;-83
2022/02/16 09:57:48;;;;;;;1.40;0.90;;;8.30;99.90;;;;;;5074966;28;20231;-84
2022/02/16 10:00:15;;;;;;;1.53;0.70;;;8.20;99.90;;;;;;5075159;28;20177;-85
2022/02/16 10:02:43;;;;;;;1.33;0.87;;;8.10;99.90;;;;;;5057213;28;20189;-85
2022/02/16 10:05:10;;;;;;;1.53;0.93;;;8.10;99.90;;;;;;5064778;28;20181;-82
2022/02/16 10:07:40;;;;;;;0.63;0.63;;;8.10;99.90;;;;;;5077039;28;20173;-83
2022/02/16 10:10:11;;;;;;;1.67;0.80;;;8.10;99.90;;;;;;5076558;28;20172;-84
2022/02/16 10:12:36;;;;;;;2.20;0.80;;;8.10;99.90;;;;;;5076914;28;20183;-83
2022/02/16 10:15:03;;;;;;;1.27;0.70;;;8.10;99.90;;;;;;5076770;28;20204;-85
2022/02/16 10:17:30;;;;;;;0.90;0.70;;;8.20;99.90;;;;;;5077177;28;20169;-84
2022/02/16 10:20:01;;;;;;;1.80;1.00;;;8.20;99.90;;;;;;5095174;28;20187;-85
2022/02/16 10:22:31;;;;;;;3.33;1.00;;;8.20;99.90;;;;;;5056753;28;20262;-85
2022/02/16 10:25:11;;;;;;;1.13;0.90;;;8.20;99.90;;;;;;5056305;28;20528;-84
2022/02/16 10:27:37;;;;;;;0.70;0.70;;;8.30;99.90;;;;;;5074628;28;20240;-83
2022/02/16 10:30:14;;;;;;;0.70;0.70;;;8.30;99.90;;;;;;5056582;28;20284;-84
2022/02/16 10:32:40;;;;;;;0.77;0.70;;;8.40;99.90;;;;;;5074504;28;20572;-85
2022/02/16 10:35:06;;;;;;;1.20;0.80;;;8.30;99.90;;;;;;5074342;28;20208;-83
2022/02/16 10:37:40;;;;;;;2.30;0.80;;;8.40;99.90;;;;;;5074485;28;20181;-83
2022/02/16 10:40:12;;;;;;;1.17;0.63;;;8.40;99.90;;;;;;5055736;28;20181;-83
2022/02/16 10:42:55;;;;;;;1.50;0.60;;;8.50;99.90;;;;;;5075008;28;20154;-83
2022/02/16 10:45:24;;;;;;;0.90;0.60;;;8.60;99.90;;;;;;5061112;28;20215;-84
2022/02/16 10:48:03;;;;;;;0.83;0.70;;;8.50;99.90;;;;;;5078860;28;20153;-84
2022/02/16 10:50:45;;;;;;;0.70;0.60;;;8.40;99.90;;;;;;5060896;28;20212;-85
2022/02/16 10:53:11;;;;;;;1.00;0.70;;;8.40;99.90;;;;;;5078023;28;20181;-82
2022/02/16 10:55:40;;;;;;;1.03;0.60;;;8.40;99.90;;;;;;5059763;28;20290;-84
2022/02/16 10:58:07;;;;;;;0.83;0.63;;;8.50;99.90;;;;;;5078380;28;20166;-83
2022/02/16 11:00:34;;;;;;;0.73;0.60;;;8.60;99.90;;;;;;5078177;28;20177;-83
2022/02/16 11:03:02;;;;;;;4.97;0.53;;;8.60;99.90;;;;;;5078239;28;20173;-85
2022/02/16 11:05:29;;;;;;;0.50;0.50;;;8.70;99.90;;;;;;5078410;28;20603;-87
2022/02/16 11:07:56;;;;;;;0.90;0.77;;;8.70;99.90;;;;;;5078717;28;20165;-88
2022/02/16 11:10:23;;;;;;;0.67;0.67;;;8.70;99.90;;;;;;5078947;28;20184;-92
2022/02/16 11:12:49;;;;;;;0.93;0.77;;;8.80;99.90;;;;;;5045399;28;20177;-87
2022/02/16 11:15:16;;;;;;;1.03;0.63;;;8.80;99.90;;;;;;5078161;28;20197;-87
2022/02/16 11:17:44;;;;;;;1.60;0.80;;;8.90;99.90;;;;;;5060036;28;20184;-82
2022/02/16 11:20:23;;;;;;;1.27;0.80;;;8.90;99.90;;;;;;5060435;28;20188;-86
2022/02/16 11:23:00;;;;;;;0.60;0.50;;;8.90;99.90;;;;;;5060277;28;20184;-81
2022/02/16 11:25:35;;;;;;;2.30;0.50;;;8.90;99.90;;;;;;5059836;28;20184;-84
2022/02/16 11:28:11;;;;;;;0.63;0.57;;;8.90;99.90;;;;;;5078395;28;20165;-84
2022/02/16 11:30:45;;;;;;;2.77;0.80;;;8.90;99.90;;;;;;5060359;28;20173;-89
2022/02/16 11:33:12;;;;;;;0.57;0.53;;;8.90;99.90;;;;;;5059814;28;20174;-80
2022/02/16 11:35:53;;;;;;;1.70;0.60;;;8.80;99.90;;;;;;5059531;28;20201;-89
2022/02/16 11:38:39;;;;;;;0.87;0.60;;;8.80;99.90;;;;;;5059886;28;20192;-86
2022/02/16 11:41:18;;;;;;;0.70;0.50;;;8.80;99.90;;;;;;5059700;28;20175;-84
2022/02/16 11:43:54;;;;;;;1.07;0.63;;;8.80;99.90;;;;;;5059547;28;20527;-81
2022/02/16 11:46:55;;;;;;;0.50;0.50;;;8.90;99.90;;;;;;5057885;28;20196;-85
2022/02/16 11:49:30;;;;;;;2.17;0.60;;;8.80;99.90;;;;;;5044639;28;20188;-88
2022/02/16 11:51:58;;;;;;;0.80;0.60;;;8.80;99.90;;;;;;5055624;28;20207;-88
2022/02/16 11:54:44;;;;;;;0.50;0.50;;;8.90;99.90;;;;;;5061355;28;20713;-84
2022/02/16 11:57:38;;;;;;;0.50;0.50;;;8.90;99.90;;;;;;5040532;28;20205;-83
2022/02/16 12:00:28;;;;;;;1.90;0.50;;;8.90;99.90;;;;;;5040328;28;20197;-84
2022/02/16 12:03:02;;;;;;;0.70;0.50;;;8.90;99.90;;;;;;5062203;28;20224;-82
2022/02/16 12:05:50;;;;;;;1.37;0.50;;;8.90;99.90;;;;;;5062287;28;20182;-86
2022/02/16 12:08:21;;;;;;;0.60;0.50;;;8.90;99.90;;;;;;5037008;28;20178;-86
2022/02/16 12:10:51;;;;;;;0.50;0.50;;;9.00;99.90;;;;;;5059402;28;20511;-89
2022/02/16 12:13:28;;;;;;;0.40;0.40;;;9.00;99.90;;;;;;5059518;28;20201;-88
2022/02/16 12:16:15;;;;;;;0.70;0.60;;;9.10;99.90;;;;;;5076765;28;20197;-87
2022/02/16 12:18:47;;;;;;;1.63;0.60;;;9.10;99.90;;;;;;5059010;28;20180;-86
2022/02/16 12:21:19;;;;;;;1.10;0.40;;;9.10;99.90;;;;;;5059292;28;20600;-86
2022/02/16 12:23:45;;;;;;;0.60;0.47;;;9.20;99.90;;;;;;5077100;28;20718;-84
2022/02/16 12:26:19;;;;;;;0.40;0.30;;;9.20;99.90;;;;;;5058874;28;20282;-83
2022/02/16 12:28:59;;;;;;;1.13;0.40;;;9.30;99.90;;;;;;5059274;28;20173;-84
2022/02/16 12:31:28;;;;;;;0.40;0.30;;;9.30;99.90;;;;;;5055823;28;20169;-80
2022/02/16 12:34:05;;;;;;;0.90;0.40;;;9.50;99.90;;;;;;5065815;28;20256;-86
2022/02/16 12:36:32;;;;;;;1.77;0.40;;;9.60;99.90;;;;;;5062095;28;20307;-84
2022/02/16 12:39:00;;;;;;;0.40;0.40;;;9.80;99.90;;;;;;5057091;28;20172;-80
2022/02/16 12:41:27;;;;;;;0.50;0.37;;;9.80;99.90;;;;;;5066749;28;20184;-83
2022/02/16 12:43:58;;;;;;;1.30;0.33;;;9.80;99.90;;;;;;5064334;28;20178;-84
2022/02/16 12:46:27;;;;;;;0.30;0.30;;;9.90;99.90;;;;;;5039018;28;20273;-85
2022/02/16 12:49:01;;;;;;;0.73;0.30;;;9.90;99.90;;;;;;5075304;28;20522;-91
2022/02/16 12:51:29;;;;;;;0.60;0.40;;;9.90;99.90;;;;;;5076533;28;20180;-86
2022/02/16 12:53:59;;;;;;;0.43;0.30;;;10.00;99.90;;;;;;5075998;28;20233;-85
2022/02/16 12:56:25;;;;;;;1.60;0.37;;;10.00;99.90;;;;;;5058104;28;20213;-87
2022/02/16 12:58:51;;;;;;;0.87;0.30;;;10.00;99.90;;;;;;5076117;28;20224;-85
2022/02/16 13:01:28;;;;;;;0.68;0.40;;;10.00;99.90;;;;;;5076388;28;20282;-85
2022/02/16 13:04:03;;;;;;;0.30;0.30;;;10.10;99.90;;;;;;5075900;28;20193;-80
2022/02/16 13:06:56;;;;;;;0.70;0.50;;;10.10;99.90;;;;;;5075012;28;20191;-85
2022/02/16 13:09:27;;;;;;;0.40;0.40;;;10.10;99.90;;;;;;5054113;28;20662;-85
2022/02/16 13:11:57;;;;;;;0.45;0.35;;;10.00;99.90;;;;;;5057910;28;20610;-85
2022/02/16 13:14:26;;;;;;;0.40;0.40;;;10.10;99.90;;;;;;5075513;28;20181;-81
2022/02/16 13:17:04;;;;;;;1.30;0.40;;;10.10;99.90;;;;;;5057973;28;20303;-84
2022/02/16 13:19:54;;;;;;;0.63;0.40;;;10.10;99.90;;;;;;5058175;28;20168;-86
2022/02/16 13:22:25;;;;;;;0.47;0.40;;;10.10;99.90;;;;;;5075921;28;20260;-84
2022/02/16 13:24:51;;;;;;;2.00;0.80;;;10.20;99.90;;;;;;5055850;28;20169;-86
2022/02/16 13:27:17;;;;;;;0.70;0.60;;;10.10;99.90;;;;;;5055732;28;20184;-88
2022/02/16 13:29:43;;;;;;;0.60;0.50;;;10.10;99.90;;;;;;5055789;28;20166;-89
2022/02/16 13:32:30;;;;;;;0.50;0.50;;;10.10;99.90;;;;;;5038126;28;20528;-87
2022/02/16 13:34:56;;;;;;;0.50;0.43;;;10.10;99.90;;;;;;5060234;28;20193;-80
2022/02/16 13:40:06;;;;;;;0.50;0.40;;;10.10;99.90;;;;;;5591638;23;20308;-96
2022/02/16 13:42:36;;;;;;;0.50;0.40;;;10.10;99.90;;;;;;4996953;28;20183;-95
2022/02/16 13:45:03;;;;;;;1.02;0.55;;;10.10;99.90;;;;;;4999318;28;20590;-94
2022/02/16 13:47:28;;;;;;;0.50;0.50;;;10.10;99.90;;;;;;4999348;28;20238;-95
2022/02/16 13:52:32;;;;;;;0.50;0.50;;;10.20;99.90;;;;;;5590614;22;20234;-88
2022/02/16 13:54:58;;;;;;;0.68;0.40;;;10.20;99.90;;;;;;4998924;28;20528;-86
2022/02/16 13:57:29;;;;;;;0.60;0.60;;;10.20;99.90;;;;;;5019011;28;20320;-86
2022/02/16 14:00:06;;;;;;;0.50;0.50;;;10.20;99.90;;;;;;4997152;28;20263;-87
2022/02/16 14:02:32;;;;;;;0.70;0.70;;;10.10;99.90;;;;;;4995960;28;20163;-87
2022/02/16 14:05:03;;;;;;;0.85;0.50;;;10.20;99.90;;;;;;4992279;28;20188;-86
2022/02/16 14:07:29;;;;;;;0.88;0.70;;;10.20;99.90;;;;;;5007903;28;20515;-86
2022/02/16 14:09:55;;;;;;;0.80;0.70;;;10.20;99.90;;;;;;5015209;28;20529;-86
2022/02/16 14:12:22;;;;;;;1.27;0.70;;;10.30;99.90;;;;;;5019745;28;20557;-85
2022/02/16 14:14:48;;;;;;;0.95;0.80;;;10.30;99.90;;;;;;5012353;28;20186;-87
2022/02/16 14:17:14;;;;;;;0.70;0.70;;;10.30;99.90;;;;;;5032370;28;20171;-87
2022/02/16 14:19:40;;;;;;;0.88;0.73;;;10.30;99.90;;;;;;5020684;28;20237;-86
2022/02/16 14:22:09;;;;;;;1.08;0.80;;;10.20;99.90;;;;;;5026697;28;20193;-88
2022/02/16 14:24:40;;;;;;;1.20;1.10;;;10.20;99.90;;;;;;5017230;28;20214;-87
2022/02/16 14:27:10;;;;;;;0.82;0.82;;;10.20;99.90;;;;;;5028544;28;20179;-88
2022/02/16 14:29:46;;;;;;;1.20;1.00;;;10.20;99.90;;;;;;4997265;28;20175;-87
2022/02/16 14:32:12;;;;;;;1.43;1.00;;;10.30;99.90;;;;;;4997721;28;20200;-88
2022/02/16 14:34:39;;;;;;;4.30;1.30;;;10.30;99.90;;;;;;4997347;28;20205;-88
2022/02/16 14:37:07;;;;;;;1.77;1.20;;;10.30;99.90;;;;;;5013503;28;20179;-88
2022/02/16 14:39:33;;;;;;;2.50;1.00;;;10.30;99.90;;;;;;5015313;28;20178;-91
2022/02/16 14:41:59;;;;;;;1.95;0.90;;;10.30;99.90;;;;;;5015064;28;20175;-89
2022/02/16 14:44:25;;;;;;;1.13;1.00;;;10.30;99.90;;;;;;5015506;28;20233;-87
2022/02/16 14:46:51;;;;;;;1.30;1.20;;;10.30;99.90;;;;;;4996972;28;20610;-88
2022/02/16 14:49:17;;;;;;;1.42;1.20;;;10.30;99.90;;;;;;5014657;28;20229;-87
2022/02/16 14:51:46;;;;;;;1.25;1.13;;;10.30;99.90;;;;;;5014898;28;20219;-90
2022/02/16 14:54:14;;;;;;;5.53;1.77;;;10.30;99.90;;;;;;5016990;28;20195;-88
2022/02/16 14:56:40;;;;;;;1.67;1.40;;;10.30;99.90;;;;;;5013441;28;20377;-84
2022/02/16 14:59:05;;;;;;;3.10;1.47;;;10.30;99.90;;;;;;5013287;28;20182;-89
2022/02/16 15:01:34;;;;;;;2.30;1.63;;;10.40;99.90;;;;;;5014915;28;20171;-86
2022/02/16 15:04:01;;;;;;;2.08;1.40;;;10.30;99.90;;;;;;5014656;28;20174;-89
2022/02/16 15:06:28;;;;;;;3.85;1.60;;;10.40;99.90;;;;;;5014842;28;20544;-87
2022/02/16 15:08:54;;;;;;;2.00;1.58;;;10.40;99.90;;;;;;5013642;28;20183;-88
2022/02/16 15:11:20;;;;;;;2.47;1.60;;;10.30;99.90;;;;;;5013532;28;20500;-89
2022/02/16 15:13:46;;;;;;;2.20;1.30;;;10.30;99.90;;;;;;5012902;28;20175;-83
2022/02/16 15:16:12;;;;;;;1.70;1.60;;;10.30;99.90;;;;;;4996885;28;20222;-85
2022/02/16 15:18:38;;;;;;;1.52;1.42;;;10.40;99.90;;;;;;5014695;28;20218;-87
2022/02/16 15:21:07;;;;;;;3.28;1.60;;;10.40;99.90;;;;;;5016117;28;20187;-87
2022/02/16 15:23:33;;;;;;;1.90;1.70;;;10.40;99.90;;;;;;5016416;28;20186;-87
2022/02/16 15:26:01;;;;;;;2.53;1.55;;;10.40;99.90;;;;;;5033420;28;20186;-90
2022/02/16 15:28:27;;;;;;;2.00;1.80;;;10.40;99.90;;;;;;5034081;28;20174;-88
2022/02/16 15:30:53;;;;;;;1.90;1.52;;;10.40;99.90;;;;;;5019895;28;20195;-88
2022/02/16 15:33:19;;;;;;;1.90;1.70;;;10.50;99.90;;;;;;4999736;28;20619;-88
2022/02/16 15:35:45;;;;;;;1.93;1.80;;;10.40;99.90;;;;;;4995255;28;20318;-89
2022/02/16 15:38:11;;;;;;;1.90;1.63;;;10.40;99.90;;;;;;5000394;28;20175;-88
2022/02/16 15:40:37;;;;;;;5.20;1.55;;;10.50;99.90;;;;;;5000140;28;20183;-87
2022/02/16 15:43:04;;;;;;;2.20;1.53;;;10.40;99.90;;;;;;5017815;28;20183;-88
2022/02/16 15:45:30;;;;;;;2.30;1.70;;;10.40;99.90;;;;;;4998984;28;20596;-88
2022/02/16 15:47:59;;;;;;;2.67;1.80;;;10.50;99.90;;;;;;5006789;28;20259;-88
2022/02/16 15:50:25;;;;;;;1.63;1.50;;;10.50;99.90;;;;;;5019698;28;20195;-88
2022/02/16 15:52:51;;;;;;;2.65;1.73;;;10.50;99.90;;;;;;5017477;28;20235;-89
2022/02/16 15:55:16;;;;;;;2.90;1.50;;;10.40;99.90;;;;;;5017466;28;20233;-89
2022/02/16 15:57:42;;;;;;;2.35;1.58;;;10.40;99.90;;;;;;5017580;28;20164;-88
2022/02/16 16:00:09;;;;;;;2.03;1.55;;;10.30;99.90;;;;;;5018490;28;20179;-88
2022/02/16 16:02:34;;;;;;;3.43;1.70;;;10.40;99.90;;;;;;5017698;28;20211;-89
2022/02/16 16:05:00;;;;;;;2.20;1.70;;;10.40;99.90;;;;;;5018571;28;20283;-89
2022/02/16 16:07:26;;;;;;;2.55;1.80;;;10.40;99.90;;;;;;5001172;28;20167;-88
2022/02/16 16:09:51;;;;;;;1.92;1.77;;;10.40;99.90;;;;;;5017870;28;20186;-88
2022/02/16 16:12:18;;;;;;;2.10;1.90;;;10.30;99.90;;;;;;5017568;28;20175;-89
2022/02/16 16:14:44;;;;;;;1.92;1.45;;;10.30;99.90;;;;;;5017066;28;20176;-88
2022/02/16 16:17:09;;;;;;;2.40;2.20;;;10.40;99.90;;;;;;4999903;28;20175;-89
2022/02/16 16:19:35;;;;;;;3.53;2.85;;;10.30;99.90;;;;;;5017386;28;20167;-88
2022/02/16 16:22:02;;;;;;;2.47;2.10;;;10.30;99.90;;;;;;5017475;28;20179;-90
2022/02/16 16:24:27;;;;;;;2.00;1.90;;;10.30;99.90;;;;;;5017234;28;20184;-88
2022/02/16 16:26:53;;;;;;;3.35;2.33;;;10.20;99.90;;;;;;5017095;28;20181;-88
2022/02/16 16:29:19;;;;;;;2.53;1.80;;;10.20;99.90;;;;;;4999342;28;20179;-90
2022/02/16 16:31:46;;;;;;;2.00;1.90;;;10.20;99.90;;;;;;5016935;28;20171;-88
2022/02/16 16:34:11;;;;;;;3.05;1.77;;;10.10;99.90;;;;;;4999484;28;20270;-88
2022/02/16 16:36:38;;;;;;;2.97;1.63;;;10.10;99.90;;;;;;5032019;28;20286;-86
2022/02/16 16:39:06;;;;;;;1.40;1.30;;;10.10;99.90;;;;;;4998832;28;20176;-89
2022/02/16 16:41:32;;;;;;;2.40;1.70;;;10.20;99.90;;;;;;5016700;28;20241;-88
2022/02/16 16:43:59;;;;;;;2.60;1.90;;;10.20;99.90;;;;;;5003097;28;20194;-88
2022/02/16 16:46:25;;;;;;;3.10;1.60;;;10.20;99.90;;;;;;5052159;28;20234;-89
2022/02/16 16:48:51;;;;;;;1.92;1.70;;;10.20;99.90;;;;;;5018794;28;20170;-90
2022/02/16 16:51:16;;;;;;;3.53;1.73;;;10.20;99.90;;;;;;5018933;28;20185;-89
2022/02/16 16:53:42;;;;;;;2.05;1.67;;;10.20;99.90;;;;;;5036200;28;20230;-88
2022/02/16 16:56:08;;;;;;;2.25;2.00;;;10.20;99.90;;;;;;5051634;28;20305;-89
2022/02/16 16:58:34;;;;;;;3.00;2.13;;;10.30;99.90;;;;;;5018619;28;20181;-90
2022/02/16 17:00:59;;;;;;;2.30;2.10;;;10.40;99.90;;;;;;5036049;28;20232;-89
2022/02/16 17:03:25;;;;;;;3.70;2.63;;;10.40;99.90;;;;;;5036338;28;20527;-88
2022/02/16 17:05:56;;;;;;;2.88;2.42;;;10.40;99.90;;;;;;5036270;28;20187;-89
2022/02/16 17:08:22;;;;;;;3.53;2.47;;;10.40;99.90;;;;;;5018311;28;20329;-89
2022/02/16 17:10:49;;;;;;;2.40;2.20;;;10.40;99.90;;;;;;5036281;28;20261;-88
2022/02/16 17:13:15;;;;;;;2.87;2.30;;;10.40;99.90;;;;;;5036184;28;20175;-90
2022/02/16 17:15:42;;;;;;;2.95;2.20;;;10.50;99.90;;;;;;5017590;28;20637;-88
2022/02/16 17:18:08;;;;;;;3.33;2.30;;;10.40;99.90;;;;;;4998422;28;20191;-89
2022/02/16 17:20:34;;;;;;;3.80;2.53;;;10.50;99.90;;;;;;4998576;28;20239;-88
2022/02/16 17:23:00;;;;;;;4.38;2.70;;;10.50;99.90;;;;;;4998487;28;20187;-90
2022/02/16 17:25:26;;;;;;;5.63;2.88;;;10.50;99.90;;;;;;4998681;28;20183;-90
2022/02/16 17:27:52;;;;;;;6.15;3.00;;;10.50;99.90;;;;;;5021413;28;20182;-88
2022/02/16 17:30:17;;;;;;;6.55;3.10;;;10.50;99.90;;;;;;5017452;28;20244;-90
2022/02/16 17:32:43;;;;;;;4.20;2.92;;;10.50;99.90;;;;;;5017811;28;20185;-88
2022/02/16 17:35:09;;;;;;;4.55;2.88;;;10.50;99.90;;;;;;5017785;28;20210;-89
2022/02/16 17:37:35;;;;;;;4.22;2.85;;;10.50;99.90;;;;;;5017064;28;20234;-88
2022/02/16 17:40:03;;;;;;;9.95;3.65;;;10.60;99.90;;;;;;5035745;28;20206;-88
2022/02/16 17:42:29;;;;;;;3.95;2.63;;;10.60;99.90;;;;;;5035048;28;20278;-89
2022/02/16 17:44:57;;;;;;;4.95;2.60;;;10.60;99.90;;;;;;5005523;28;20609;-90
2022/02/16 17:47:24;;;;;;;8.65;3.05;;;10.60;99.90;;;;;;5030749;28;20253;-89
2022/02/16 17:49:51;;;;;;;5.03;2.92;;;10.60;99.90;;;;;;4998097;28;20203;-89